createdAt,value
2023-05-20T00:00:49.301Z,12.61
2023-05-20T00:03:17.000Z,12.62
2023-05-20T00:05:43.851Z,12.60
2023-05-20T00:08:11.156Z,12.59
2023-05-20T00:10:37.967Z,12.54
2023-05-20T00:13:04.742Z,12.53
2023-05-20T00:15:32.664Z,12.51
2023-05-20T00:18:01.697Z,12.48
2023-05-20T00:20:28.819Z,12.43
2023-05-20T00:22:55.296Z,12.46
2023-05-20T00:25:22.013Z,12.46
2023-05-20T00:27:48.523Z,12.39
2023-05-20T00:30:15.029Z,12.39
2023-05-20T00:32:41.506Z,12.39
2023-05-20T00:35:08.772Z,12.39
2023-05-20T00:37:35.317Z,12.38
2023-05-20T00:40:01.830Z,12.36
2023-05-20T00:42:28.959Z,12.29
2023-05-20T00:44:56.193Z,12.29
2023-05-20T00:47:28.725Z,12.30
2023-05-20T00:49:55.762Z,12.29
2023-05-20T00:52:22.451Z,12.29
2023-05-20T00:54:50.124Z,12.28
2023-05-20T00:57:17.207Z,12.29
2023-05-20T00:59:44.861Z,12.28
2023-05-20T01:02:11.934Z,12.25
2023-05-20T01:04:38.516Z,12.22
2023-05-20T01:07:06.583Z,12.21
2023-05-20T01:09:33.485Z,12.20
2023-05-20T01:12:09.711Z,12.21
2023-05-20T01:15:00.382Z,12.16
2023-05-20T01:17:31.263Z,12.15
2023-05-20T01:19:59.559Z,12.09
2023-05-20T01:22:27.218Z,12.16
2023-05-20T01:24:53.820Z,12.09
2023-05-20T01:27:22.612Z,12.07
2023-05-20T01:29:51.022Z,12.07
2023-05-20T01:32:24.828Z,12.04
2023-05-20T01:34:52.957Z,12.03
2023-05-20T01:37:20.019Z,12.00
2023-05-20T01:39:49.238Z,11.97
2023-05-20T01:42:16.886Z,11.97
2023-05-20T01:44:43.974Z,11.97
2023-05-20T01:47:10.752Z,12.00
2023-05-20T01:49:37.225Z,11.99
2023-05-20T01:52:04.381Z,11.98
2023-05-20T01:54:31.015Z,11.94
2023-05-20T01:56:57.446Z,11.92
2023-05-20T01:59:23.874Z,11.89
2023-05-20T02:01:50.707Z,11.87
2023-05-20T02:04:19.114Z,11.85
2023-05-20T02:06:46.050Z,11.82
2023-05-20T02:09:13.224Z,11.81
2023-05-20T02:11:39.766Z,11.77
2023-05-20T02:14:06.358Z,11.77
2023-05-20T02:16:32.937Z,11.75
2023-05-20T02:18:59.416Z,11.72
2023-05-20T02:21:26.004Z,11.72
2023-05-20T02:23:52.463Z,11.70
2023-05-20T02:26:20.530Z,11.69
2023-05-20T02:28:50.543Z,11.67
2023-05-20T02:31:17.720Z,11.64
2023-05-20T02:33:44.897Z,11.62
2023-05-20T02:36:11.398Z,11.60
2023-05-20T02:38:37.843Z,11.58
2023-05-20T02:41:04.693Z,11.52
2023-05-20T02:43:32.804Z,11.52
2023-05-20T02:45:59.295Z,11.48
2023-05-20T02:48:25.817Z,11.47
2023-05-20T02:50:53.129Z,11.49
2023-05-20T02:53:19.571Z,11.45
2023-05-20T02:55:49.954Z,11.39
2023-05-20T02:58:17.310Z,11.39
2023-05-20T03:00:43.890Z,11.37
2023-05-20T03:03:10.694Z,11.36
2023-05-20T03:05:37.698Z,11.34
2023-05-20T03:08:09.658Z,11.34
2023-05-20T03:10:37.651Z,11.33
2023-05-20T03:13:08.615Z,11.33
2023-05-20T03:15:36.143Z,11.31
2023-05-20T03:18:02.835Z,11.31
2023-05-20T03:20:30.017Z,11.30
2023-05-20T03:22:56.849Z,11.27
2023-05-20T03:25:24.949Z,11.28
2023-05-20T03:27:51.554Z,11.25
2023-05-20T03:30:18.092Z,11.19
2023-05-20T03:32:44.897Z,11.19
2023-05-20T03:35:11.532Z,11.16
2023-05-20T03:37:38.050Z,11.15
2023-05-20T03:40:07.823Z,11.15
2023-05-20T03:42:34.678Z,11.12
2023-05-20T03:45:01.227Z,11.12
2023-05-20T03:47:28.323Z,11.11
2023-05-20T03:49:55.049Z,11.08
2023-05-20T03:52:21.581Z,11.05
2023-05-20T03:54:48.122Z,11.04
2023-05-20T03:57:14.981Z,11.09
2023-05-20T03:59:41.881Z,11.10
2023-05-20T04:02:09.716Z,11.09
2023-05-20T04:04:36.568Z,11.08
2023-05-20T04:07:05.941Z,11.12
2023-05-20T04:09:32.411Z,11.13
2023-05-20T04:11:58.955Z,11.12
2023-05-20T04:14:25.394Z,11.13
2023-05-20T04:16:52.527Z,11.13
2023-05-20T04:19:24.203Z,11.16
2023-05-20T04:21:50.773Z,11.22
2023-05-20T04:24:17.223Z,11.24
2023-05-20T04:26:43.698Z,11.23
2023-05-20T04:29:10.130Z,11.28
2023-05-20T04:31:36.628Z,11.28
2023-05-20T04:34:03.114Z,11.31
2023-05-20T04:36:30.696Z,11.34
2023-05-20T04:38:57.397Z,11.34
2023-05-20T04:41:24.269Z,11.33
2023-05-20T04:43:50.723Z,11.33
2023-05-20T04:46:17.271Z,11.33
2023-05-20T04:48:48.099Z,11.36
2023-05-20T04:51:14.533Z,11.39
2023-05-20T04:53:40.975Z,11.42
2023-05-20T04:56:08.252Z,11.41
2023-05-20T04:58:35.458Z,11.42
2023-05-20T05:01:02.645Z,11.43
2023-05-20T05:03:29.402Z,11.48
2023-05-20T05:05:57.237Z,11.50
2023-05-20T05:08:23.835Z,11.53
2023-05-20T05:10:50.437Z,11.57
2023-05-20T05:13:16.981Z,11.60
2023-05-20T05:15:43.479Z,11.64
2023-05-20T05:18:09.978Z,11.65
2023-05-20T05:20:36.591Z,11.69
2023-05-20T05:23:03.230Z,11.72
2023-05-20T05:25:29.693Z,11.74
2023-05-20T05:27:56.243Z,11.77
2023-05-20T05:30:22.762Z,11.80
2023-05-20T05:32:49.246Z,11.86
2023-05-20T05:35:16.068Z,11.90
2023-05-20T05:37:42.574Z,11.95
2023-05-20T05:40:09.418Z,11.99
2023-05-20T05:42:35.909Z,12.02
2023-05-20T05:45:02.355Z,12.05
2023-05-20T05:47:32.549Z,12.12
2023-05-20T05:50:00.245Z,12.17
2023-05-20T05:52:27.159Z,12.21
2023-05-20T05:54:54.682Z,12.24
2023-05-20T05:57:21.181Z,12.31
2023-05-20T05:59:47.664Z,12.35
2023-05-20T06:02:14.919Z,12.42
2023-05-20T06:04:41.719Z,12.45
2023-05-20T06:07:08.313Z,12.50
2023-05-20T06:09:35.170Z,12.57
2023-05-20T06:12:02.539Z,12.62
2023-05-20T06:14:29.209Z,12.66
2023-05-20T06:16:55.814Z,12.72
2023-05-20T06:19:22.370Z,12.77
2023-05-20T06:21:48.962Z,12.83
2023-05-20T06:24:16.076Z,12.87
2023-05-20T06:26:42.762Z,12.91
2023-05-20T06:29:09.279Z,12.95
2023-05-20T06:31:35.794Z,12.99
2023-05-20T06:34:02.271Z,13.07
2023-05-20T06:36:29.717Z,13.12
2023-05-20T06:38:56.734Z,13.17
2023-05-20T06:41:23.188Z,13.22
2023-05-20T06:43:51.771Z,13.27
2023-05-20T06:46:19.736Z,13.32
2023-05-20T06:48:46.231Z,13.38
2023-05-20T06:51:12.633Z,13.41
2023-05-20T06:53:39.051Z,13.47
2023-05-20T06:56:05.920Z,13.51
2023-05-20T06:58:32.876Z,13.59
2023-05-20T07:00:59.292Z,13.64
2023-05-20T07:03:26.144Z,13.68
2023-05-20T07:05:52.862Z,13.73
2023-05-20T07:08:19.572Z,13.82
2023-05-20T07:10:46.786Z,13.87
2023-05-20T07:13:13.226Z,13.94
2023-05-20T07:15:39.656Z,13.99
2023-05-20T07:18:06.565Z,14.05
2023-05-20T07:20:33.068Z,14.11
2023-05-20T07:22:59.701Z,14.19
2023-05-20T07:25:26.268Z,14.27
2023-05-20T07:27:52.768Z,14.36
2023-05-20T07:30:19.377Z,14.46
2023-05-20T07:32:45.848Z,14.54
2023-05-20T07:35:12.354Z,14.60
2023-05-20T07:37:38.778Z,14.68
2023-05-20T07:40:07.218Z,14.75
2023-05-20T07:42:34.289Z,14.82
2023-05-20T07:45:00.762Z,14.91
2023-05-20T07:47:27.276Z,14.98
2023-05-20T07:49:53.797Z,15.03
2023-05-20T07:52:20.228Z,15.13
2023-05-20T07:54:46.662Z,15.16
2023-05-20T07:57:13.223Z,15.23
2023-05-20T07:59:39.667Z,15.29
2023-05-20T08:02:07.053Z,15.35
2023-05-20T08:04:33.625Z,15.44
2023-05-20T08:07:00.197Z,15.52
2023-05-20T08:09:26.812Z,15.61
2023-05-20T08:11:53.284Z,15.69
2023-05-20T08:14:19.731Z,15.73
2023-05-20T08:16:46.250Z,15.78
2023-05-20T08:19:12.859Z,15.85
2023-05-20T08:21:39.567Z,15.89
2023-05-20T08:24:06.450Z,15.97
2023-05-20T08:26:33.065Z,16.04
2023-05-20T08:28:59.527Z,16.09
2023-05-20T08:31:26.291Z,16.14
2023-05-20T08:33:53.173Z,16.21
2023-05-20T08:36:21.138Z,16.29
2023-05-20T08:38:47.965Z,16.33
2023-05-20T08:41:14.476Z,16.37
2023-05-20T08:43:41.337Z,16.43
2023-05-20T08:46:08.984Z,16.51
2023-05-20T08:48:35.906Z,16.54
2023-05-20T08:51:04.153Z,16.59
2023-05-20T08:53:30.931Z,16.64
2023-05-20T08:56:02.850Z,16.69
2023-05-20T08:58:30.253Z,16.73
2023-05-20T09:00:56.787Z,16.72
2023-05-20T09:03:24.388Z,16.74
2023-05-20T09:05:54.478Z,16.77
2023-05-20T09:08:27.199Z,16.82
2023-05-20T09:10:54.521Z,16.91
2023-05-20T09:13:23.625Z,16.97
2023-05-20T09:15:50.528Z,16.95
2023-05-20T09:18:17.245Z,16.93
2023-05-20T09:20:47.390Z,16.89
2023-05-20T09:23:23.832Z,16.90
2023-05-20T09:25:56.544Z,16.95
2023-05-20T09:28:26.967Z,16.96
2023-05-20T09:30:58.789Z,16.97
2023-05-20T09:33:34.166Z,17.01
2023-05-20T09:36:03.495Z,17.06
2023-05-20T09:38:37.799Z,17.11
2023-05-20T09:41:08.282Z,17.14
2023-05-20T09:43:38.667Z,17.20
2023-05-20T09:46:05.798Z,17.23
2023-05-20T09:48:36.224Z,17.24
2023-05-20T09:51:04.417Z,17.33
2023-05-20T09:53:31.475Z,17.37
2023-05-20T09:55:58.331Z,17.41
2023-05-20T09:58:25.480Z,17.46
2023-05-20T10:00:53.913Z,17.49
2023-05-20T10:03:24.902Z,17.53
2023-05-20T10:06:10.651Z,17.48
2023-05-20T10:08:47.122Z,17.43
2023-05-20T10:11:26.971Z,17.48
2023-05-20T10:14:15.573Z,17.51
2023-05-20T10:16:54.311Z,17.54
2023-05-20T10:19:35.429Z,17.59
2023-05-20T10:22:07.209Z,17.61
2023-05-20T10:24:34.712Z,17.67
2023-05-20T10:27:03.607Z,17.77
2023-05-20T10:32:27.974Z,17.86
2023-05-20T10:35:17.979Z,17.81
2023-05-20T10:37:47.528Z,17.77
2023-05-20T10:40:15.913Z,17.78
2023-05-20T10:42:42.897Z,17.83
2023-05-20T10:45:47.339Z,17.84
2023-05-20T10:48:27.481Z,17.88
2023-05-20T10:50:57.227Z,17.90
2023-05-20T10:53:38.501Z,17.90
2023-05-20T10:56:05.643Z,17.87
2023-05-20T10:58:39.380Z,17.82
2023-05-20T11:01:06.177Z,17.87
2023-05-20T11:03:33.507Z,17.95
2023-05-20T11:06:00.011Z,18.07
2023-05-20T11:08:33.418Z,18.15
2023-05-20T11:10:59.865Z,18.20
2023-05-20T11:13:26.804Z,18.25
2023-05-20T11:15:53.540Z,18.28
2023-05-20T11:18:20.082Z,18.31
2023-05-20T11:20:47.354Z,18.33
2023-05-20T11:23:18.273Z,18.37
2023-05-20T11:25:44.728Z,18.37
2023-05-20T11:28:16.522Z,18.40
2023-05-20T11:30:43.296Z,18.45
2023-05-20T11:33:13.430Z,18.47
2023-05-20T11:35:53.009Z,18.39
2023-05-20T11:38:20.722Z,18.32
2023-05-20T11:40:52.030Z,18.25
2023-05-20T11:43:19.408Z,18.25
2023-05-20T11:45:47.980Z,18.28
2023-05-20T11:48:17.385Z,18.43
2023-05-20T11:50:45.500Z,18.52
2023-05-20T11:53:19.861Z,18.58
2023-05-20T11:55:50.405Z,18.57
2023-05-20T11:58:19.295Z,18.55
2023-05-20T12:00:53.285Z,18.57
2023-05-20T12:03:23.770Z,18.61
2023-05-20T12:05:51.331Z,18.64
2023-05-20T12:08:22.064Z,18.67
2023-05-20T12:10:56.258Z,18.74
2023-05-20T12:13:23.841Z,18.82
2023-05-20T12:15:50.628Z,18.81
2023-05-20T12:18:17.158Z,18.86
2023-05-20T12:20:43.692Z,18.88
2023-05-20T12:23:10.332Z,18.86
2023-05-20T12:25:36.762Z,18.81
2023-05-20T12:28:03.606Z,18.73
2023-05-20T12:30:30.046Z,18.65
2023-05-20T12:32:56.964Z,18.57
2023-05-20T12:35:40.460Z,18.57
2023-05-20T12:38:07.463Z,18.63
2023-05-20T12:40:35.617Z,18.63
2023-05-20T12:43:03.637Z,18.59
2023-05-20T12:45:30.151Z,18.59
2023-05-20T12:47:59.205Z,18.59
2023-05-20T12:50:26.058Z,18.58
2023-05-20T12:52:53.061Z,18.57
2023-05-20T12:55:19.605Z,18.57
2023-05-20T12:57:47.353Z,18.61
2023-05-20T13:00:14.462Z,18.59
2023-05-20T13:02:45.213Z,18.57
2023-05-20T13:05:12.356Z,18.55
2023-05-20T13:07:39.412Z,18.55
2023-05-20T13:10:07.902Z,18.55
2023-05-20T13:12:35.403Z,18.54
2023-05-20T13:15:02.072Z,18.53
2023-05-20T13:17:28.601Z,18.52
2023-05-20T13:19:55.476Z,18.55
2023-05-20T13:22:22.567Z,18.57
2023-05-20T13:24:49.051Z,18.62
2023-05-20T13:27:15.603Z,18.68
2023-05-20T13:29:45.404Z,18.66
2023-05-20T13:32:11.895Z,18.63
2023-05-20T13:34:39.409Z,18.59
2023-05-20T13:37:08.570Z,18.62
2023-05-20T13:39:43.411Z,18.62
2023-05-20T13:42:18.897Z,18.64
2023-05-20T13:44:45.344Z,18.65
2023-05-20T13:47:11.826Z,18.68
2023-05-20T13:49:38.251Z,18.73
2023-05-20T13:52:05.133Z,18.77
2023-05-20T13:54:31.581Z,18.82
2023-05-20T13:56:58.036Z,18.85
2023-05-20T13:59:24.474Z,18.85
2023-05-20T14:01:50.938Z,18.85
2023-05-20T14:04:17.418Z,18.82
2023-05-20T14:06:43.885Z,18.78
2023-05-20T14:09:10.861Z,18.77
2023-05-20T14:11:37.430Z,18.76
2023-05-20T14:14:03.972Z,18.78
2023-05-20T14:16:31.216Z,18.82
2023-05-20T14:18:57.719Z,18.89
2023-05-20T14:21:30.130Z,18.97
2023-05-20T14:23:58.644Z,18.97
2023-05-20T14:26:25.062Z,18.94
2023-05-20T14:28:52.168Z,18.90
2023-05-20T14:31:18.618Z,18.88
2023-05-20T14:33:49.468Z,18.89
2023-05-20T14:36:16.003Z,18.87
2023-05-20T14:38:42.413Z,18.85
2023-05-20T14:41:08.827Z,18.86
2023-05-20T14:43:36.655Z,18.88
2023-05-20T14:46:03.929Z,18.89
2023-05-20T14:48:30.561Z,18.92
2023-05-20T14:50:56.998Z,18.92
2023-05-20T14:53:23.644Z,18.86
2023-05-20T14:55:50.197Z,18.81
2023-05-20T14:58:16.787Z,18.79
2023-05-20T15:00:43.445Z,18.79
2023-05-20T15:03:10.129Z,18.81
2023-05-20T15:05:36.857Z,18.81
2023-05-20T15:08:03.781Z,18.80
2023-05-20T15:10:30.221Z,18.80
2023-05-20T15:12:56.745Z,18.80
2023-05-20T15:15:23.254Z,18.77
2023-05-20T15:17:49.719Z,18.75
2023-05-20T15:20:16.270Z,18.73
2023-05-20T15:22:47.901Z,18.70
2023-05-20T15:25:14.557Z,18.70
2023-05-20T15:27:42.276Z,18.70
2023-05-20T15:30:09.688Z,18.68
2023-05-20T15:32:36.466Z,18.69
2023-05-20T15:35:04.230Z,18.70
2023-05-20T15:37:30.829Z,18.70
2023-05-20T15:39:57.277Z,18.70
2023-05-20T15:42:24.725Z,18.69
2023-05-20T15:44:51.330Z,18.68
2023-05-20T15:47:17.781Z,18.68
2023-05-20T15:49:44.253Z,18.67
2023-05-20T15:52:10.729Z,18.66
2023-05-20T15:54:37.157Z,18.65
2023-05-20T15:57:03.803Z,18.59
2023-05-20T15:59:30.236Z,18.56
2023-05-20T16:01:56.731Z,18.52
2023-05-20T16:04:23.344Z,18.49
2023-05-20T16:06:49.949Z,18.48
2023-05-20T16:09:16.607Z,18.46
2023-05-20T16:11:46.365Z,18.46
2023-05-20T16:14:12.835Z,18.45
2023-05-20T16:16:39.502Z,18.47
2023-05-20T16:19:10.438Z,18.49
2023-05-20T16:21:36.937Z,18.48
2023-05-20T16:24:03.583Z,18.48
2023-05-20T16:26:31.504Z,18.47
2023-05-20T16:28:58.001Z,18.47
2023-05-20T16:31:24.533Z,18.48
2023-05-20T16:33:51.084Z,18.47
2023-05-20T16:36:17.525Z,18.45
2023-05-20T16:38:43.936Z,18.43
2023-05-20T16:41:10.503Z,18.43
2023-05-20T16:43:37.068Z,18.41
2023-05-20T16:46:03.544Z,18.41
2023-05-20T16:48:30.005Z,18.39
2023-05-20T16:50:56.587Z,18.39
2023-05-20T16:53:23.075Z,18.38
2023-05-20T16:55:49.474Z,18.39
2023-05-20T16:58:16.049Z,18.38
2023-05-20T17:00:42.507Z,18.34
2023-05-20T17:03:09.173Z,18.33
2023-05-20T17:05:35.966Z,18.33
2023-05-20T17:08:02.442Z,18.31
2023-05-20T17:10:29.541Z,18.27
2023-05-20T17:12:56.059Z,18.25
2023-05-20T17:15:23.661Z,18.25
2023-05-20T17:17:50.654Z,18.23
2023-05-20T17:20:17.241Z,18.19
2023-05-20T17:22:43.750Z,18.17
2023-05-20T17:25:10.366Z,18.17
2023-05-20T17:27:36.801Z,18.15
2023-05-20T17:30:04.363Z,18.14
2023-05-20T17:32:41.455Z,18.15
2023-05-20T17:35:08.766Z,18.15
2023-05-20T17:37:35.670Z,18.12
2023-05-20T17:40:02.247Z,18.13
2023-05-20T17:42:28.801Z,18.11
2023-05-20T17:44:55.573Z,18.09
2023-05-20T17:47:22.065Z,18.04
2023-05-20T17:49:48.545Z,18.04
2023-05-20T17:52:15.095Z,18.00
2023-05-20T17:54:41.645Z,17.95
2023-05-20T17:57:08.093Z,17.93
2023-05-20T17:59:36.669Z,17.92
2023-05-20T18:02:06.332Z,17.90
2023-05-20T18:04:32.907Z,17.90
2023-05-20T18:06:59.505Z,17.88
2023-05-20T18:09:25.922Z,17.86
2023-05-20T18:11:52.394Z,17.85
2023-05-20T18:14:22.770Z,17.83
2023-05-20T18:16:49.663Z,17.78
2023-05-20T18:19:16.322Z,17.77
2023-05-20T18:21:42.779Z,17.75
2023-05-20T18:24:09.280Z,17.74
2023-05-20T18:26:35.851Z,17.74
2023-05-20T18:29:02.388Z,17.69
2023-05-20T18:31:29.016Z,17.66
2023-05-20T18:33:55.564Z,17.65
2023-05-20T18:36:22.051Z,17.62
2023-05-20T18:38:48.619Z,17.62
2023-05-20T18:41:15.056Z,17.61
2023-05-20T18:43:41.485Z,17.60
2023-05-20T18:46:07.995Z,17.57
2023-05-20T18:48:34.528Z,17.54
2023-05-20T18:51:00.979Z,17.53
2023-05-20T18:53:27.475Z,17.51
2023-05-20T18:55:55.555Z,17.49
2023-05-20T18:58:22.065Z,17.48
2023-05-20T19:00:48.586Z,17.44
2023-05-20T19:03:15.122Z,17.40
2023-05-20T19:05:41.621Z,17.38
2023-05-20T19:08:09.318Z,17.36
2023-05-20T19:10:35.882Z,17.32
2023-05-20T19:13:02.363Z,17.31
2023-05-20T19:15:31.110Z,17.30
2023-05-20T19:17:57.581Z,17.27
2023-05-20T19:20:24.053Z,17.26
2023-05-20T19:22:50.551Z,17.25
2023-05-20T19:25:17.045Z,17.22
2023-05-20T19:27:43.486Z,17.19
2023-05-20T19:30:11.259Z,17.16
2023-05-20T19:32:38.798Z,17.14
2023-05-20T19:35:06.174Z,17.10
2023-05-20T19:37:33.004Z,17.09
2023-05-20T19:39:59.450Z,17.06
2023-05-20T19:42:25.912Z,17.02
2023-05-20T19:44:53.528Z,16.98
2023-05-20T19:47:20.059Z,16.96
2023-05-20T19:49:46.635Z,16.96
2023-05-20T19:52:13.065Z,16.94
2023-05-20T19:54:41.048Z,16.89
2023-05-20T19:57:07.526Z,16.85
2023-05-20T19:59:33.979Z,16.77
2023-05-20T20:02:02.853Z,16.70
2023-05-20T20:04:30.435Z,16.64
2023-05-20T20:06:56.920Z,16.56
2023-05-20T20:09:23.363Z,16.51
2023-05-20T20:11:49.775Z,16.47
2023-05-20T20:14:16.213Z,16.43
2023-05-20T20:16:48.633Z,16.35
2023-05-20T20:19:22.840Z,16.33
2023-05-20T20:21:52.203Z,16.31
2023-05-20T20:24:19.407Z,16.25
2023-05-20T20:26:47.429Z,16.20
2023-05-20T20:29:15.048Z,16.16
2023-05-20T20:31:41.734Z,16.13
2023-05-20T20:34:08.286Z,16.10
2023-05-20T20:36:34.902Z,16.12
2023-05-20T20:39:04.661Z,16.15
2023-05-20T20:41:32.153Z,16.14
2023-05-20T20:43:59.491Z,16.16
2023-05-20T20:46:27.632Z,16.16
2023-05-20T20:48:54.280Z,16.17
2023-05-20T20:51:20.751Z,16.15
2023-05-20T20:53:48.123Z,16.14
2023-05-20T20:56:14.554Z,16.15
2023-05-20T20:58:41.288Z,16.13
2023-05-20T21:01:09.900Z,16.12
2023-05-20T21:03:40.175Z,16.11
2023-05-20T21:06:08.057Z,16.10
2023-05-20T21:08:34.756Z,16.13
2023-05-20T21:11:01.441Z,16.13
2023-05-20T21:13:28.764Z,16.15
2023-05-20T21:15:55.514Z,16.12
2023-05-20T21:18:23.659Z,16.07
2023-05-20T21:20:51.254Z,16.07
2023-05-20T21:23:18.750Z,16.06
2023-05-20T21:25:45.399Z,16.06
2023-05-20T21:28:12.067Z,16.05
2023-05-20T21:30:38.536Z,16.03
2023-05-20T21:33:04.997Z,16.03
2023-05-20T21:35:31.461Z,16.05
2023-05-20T21:37:58.213Z,16.05
2023-05-20T21:40:24.641Z,16.05
2023-05-20T21:42:51.085Z,16.05
2023-05-20T21:45:17.687Z,16.04
2023-05-20T21:47:46.179Z,16.03
2023-05-20T21:50:12.769Z,16.02
2023-05-20T21:52:42.103Z,16.01
2023-05-20T21:55:09.736Z,15.98
2023-05-20T21:57:36.579Z,15.96
2023-05-20T22:00:09.540Z,15.94
2023-05-20T22:02:36.389Z,15.93
2023-05-20T22:05:04.504Z,15.94
2023-05-20T22:07:30.937Z,15.92
2023-05-20T22:09:57.435Z,15.88
2023-05-20T22:12:23.852Z,15.88
2023-05-20T22:14:50.299Z,15.88
2023-05-20T22:17:17.851Z,15.87
2023-05-20T22:19:44.281Z,15.84
2023-05-20T22:22:11.229Z,15.83
2023-05-20T22:24:37.658Z,15.80
2023-05-20T22:27:04.514Z,15.79
2023-05-20T22:29:32.442Z,15.79
2023-05-20T22:31:59.291Z,15.78
2023-05-20T22:34:26.075Z,15.76
2023-05-20T22:36:53.929Z,15.74
2023-05-20T22:39:20.997Z,15.70
2023-05-20T22:41:47.456Z,15.73
2023-05-20T22:44:14.022Z,15.71
2023-05-20T22:46:40.825Z,15.73
2023-05-20T22:49:07.277Z,15.74
2023-05-20T22:51:35.186Z,15.73
2023-05-20T22:54:01.645Z,15.73
2023-05-20T22:56:29.505Z,15.73
2023-05-20T22:58:55.941Z,15.72
2023-05-20T23:01:22.408Z,15.72
2023-05-20T23:03:49.148Z,15.71
2023-05-20T23:06:15.712Z,15.71
2023-05-20T23:08:43.002Z,15.70
2023-05-20T23:11:09.435Z,15.70
2023-05-20T23:13:35.830Z,15.70
2023-05-20T23:16:02.241Z,15.69
2023-05-20T23:18:28.680Z,15.68
2023-05-20T23:20:56.009Z,15.67
2023-05-20T23:23:30.612Z,15.63
2023-05-20T23:25:58.878Z,15.63
2023-05-20T23:28:25.445Z,15.61
2023-05-20T23:30:51.877Z,15.60
2023-05-20T23:33:22.892Z,15.60
2023-05-20T23:35:51.432Z,15.59
2023-05-20T23:38:18.191Z,15.58
2023-05-20T23:40:44.683Z,15.56
2023-05-20T23:43:11.131Z,15.57
2023-05-20T23:45:37.710Z,15.58
2023-05-20T23:48:09.921Z,15.55
2023-05-20T23:50:36.414Z,15.52
2023-05-20T23:53:02.826Z,15.52
2023-05-20T23:55:29.285Z,15.52
2023-05-20T23:57:55.879Z,15.51
